Time;durP1;ratioP1;P1;durP2;ratioP2;P2;SDS_P1;SDS_P2;PMS_P1;PMS_P2;Temp;Humidity;BMP_temperature;BMP_pressure;BME280_temperature;BME280_humidity;BME280_pressure;Samples;Min_cycle;Max_cycle;Signal;HPM_P1;HPM_P2
2022/08/04 00:00:20;;;;;;;3.60;1.58;;;;;;;25.87;50.97;98508.16;4997133;28;20055;-61
2022/08/04 00:03:01;;;;;;;4.43;1.48;;;;;;;25.98;51.16;98507.25;4964644;28;20608;-61
2022/08/04 00:05:45;;;;;;;5.28;1.70;;;;;;;25.52;51.54;98440.06;4997507;28;20038;-60
2022/08/04 00:08:29;;;;;;;5.68;1.60;;;;;;;25.72;52.09;98471.47;5000370;28;20030;-63
2022/08/04 00:10:58;;;;;;;4.80;2.10;;;;;;;25.41;53.77;98465.75;4999875;28;20888;-61
2022/08/04 00:13:25;;;;;;;5.15;1.80;;;;;;;25.65;54.08;98500.94;4980587;28;20026;-59
2022/08/04 00:15:59;;;;;;;4.90;1.60;;;;;;;25.67;54.36;98506.81;4981657;28;20458;-60
2022/08/04 00:18:36;;;;;;;4.30;1.60;;;;;;;25.82;53.77;98500.88;4998490;28;20022;-60
2022/08/04 00:21:04;;;;;;;3.95;1.60;;;;;;;25.87;54.71;98500.16;4999548;28;20341;-60
2022/08/04 00:23:34;;;;;;;4.00;1.83;;;;;;;25.88;54.45;98505.25;4996445;28;20017;-59
2022/08/04 00:26:00;;;;;;;3.58;1.50;;;;;;;25.81;54.82;98496.63;4980719;28;20445;-60
2022/08/04 00:28:26;;;;;;;5.57;1.58;;;;;;;25.82;54.93;98498.22;4982111;28;20025;-62
2022/08/04 00:30:52;;;;;;;3.60;1.70;;;;;;;25.86;53.90;98495.88;4995708;28;20049;-60
2022/08/04 00:33:19;;;;;;;5.65;1.67;;;;;;;25.44;55.25;98462.56;4998383;28;20747;-63
2022/08/04 00:35:48;;;;;;;4.60;1.65;;;;;;;25.55;54.79;98468.84;4996443;28;20022;-60
2022/08/04 00:38:18;;;;;;;3.88;1.77;;;;;;;25.79;54.19;98492.56;4978347;28;20026;-59
2022/08/04 00:40:49;;;;;;;5.25;1.75;;;;;;;25.80;53.93;98500.31;4992486;28;20068;-62
2022/08/04 00:43:27;;;;;;;3.35;1.55;;;;;;;25.79;54.50;98497.91;4980944;28;20205;-60
2022/08/04 00:46:17;;;;;;;4.75;1.80;;;;;;;25.68;55.28;98499.63;4994222;28;20033;-60
2022/08/04 00:48:45;;;;;;;4.70;1.60;;;;;;;25.66;54.90;98505.19;4995478;28;20505;-60
2022/08/04 00:51:29;;;;;;;5.25;1.90;;;;;;;25.75;55.81;98512.75;5002563;28;20030;-59
2022/08/04 00:54:06;;;;;;;3.65;1.55;;;;;;;25.73;55.55;98515.66;4997735;28;20867;-61
2022/08/04 00:56:49;;;;;;;5.43;1.50;;;;;;;25.52;55.49;98482.66;4994410;28;20053;-60
2022/08/04 00:59:23;;;;;;;4.00;1.58;;;;;;;25.64;55.40;98511.81;4997055;28;20030;-59
2022/08/04 01:02:15;;;;;;;3.70;1.75;;;;;;;25.64;55.59;98501.16;4996832;28;20046;-61
2022/08/04 01:05:05;;;;;;;3.92;1.73;;;;;;;25.58;55.39;98481.66;4982491;28;20033;-62
2022/08/04 01:07:38;;;;;;;3.78;1.70;;;;;;;25.44;55.35;98480.41;4992986;28;20031;-59
2022/08/04 01:10:09;;;;;;;4.57;1.83;;;;;;;25.64;55.10;98504.63;4990781;28;20061;-60
2022/08/04 01:13:12;;;;;;;5.03;2.05;;;;;;;25.65;56.74;98500.94;4995090;28;20088;-60
2022/08/04 01:15:45;;;;;;;3.85;1.77;;;;;;;25.62;57.08;98503.28;4995223;28;20101;-60
2022/08/04 01:18:20;;;;;;;4.65;1.75;;;;;;;25.59;57.44;98506.41;4995432;28;20034;-64
2022/08/04 01:21:11;;;;;;;3.83;1.80;;;;;;;25.55;57.64;98507.97;4982717;28;20096;-61
2022/08/04 01:23:50;;;;;;;3.90;1.80;;;;;;;25.55;57.88;98498.13;4997279;28;20057;-60
2022/08/04 01:26:21;;;;;;;4.85;1.80;;;;;;;25.47;57.77;98504.66;4980885;28;20026;-63
2022/08/04 01:29:13;;;;;;;5.28;2.00;;;;;;;25.47;57.35;98506.53;5002849;28;20041;-61
2022/08/04 01:31:49;;;;;;;3.85;1.88;;;;;;;25.45;56.58;98509.44;4998000;28;20042;-60
2022/08/04 01:34:16;;;;;;;4.45;2.00;;;;;;;25.52;56.91;98504.75;5002273;28;20034;-59
2022/08/04 01:36:46;;;;;;;5.03;1.80;;;;;;;25.54;56.44;98501.03;5003680;28;20033;-60
2022/08/04 01:41:59;;;;;;;3.50;1.60;;;;;;;25.52;56.85;98495.97;5000595;28;20100;-62
2022/08/04 01:44:30;;;;;;;4.05;1.90;;;;;;;25.55;57.78;98498.13;4984414;28;20072;-61
2022/08/04 01:46:56;;;;;;;5.65;2.10;;;;;;;25.52;57.56;98495.97;4979796;28;20036;-62
2022/08/04 01:49:23;;;;;;;5.82;1.95;;;;;;;25.25;57.05;98462.03;5002413;28;20112;-63
2022/08/04 01:51:51;;;;;;;4.05;1.80;;;;;;;25.47;57.95;98494.03;5001372;28;20117;-59
2022/08/04 01:54:17;;;;;;;4.40;1.92;;;;;;;25.50;57.80;98496.22;4989565;28;20416;-61
2022/08/04 01:56:44;;;;;;;5.35;1.80;;;;;;;25.38;57.48;98498.16;4985990;28;20025;-62
2022/08/04 01:59:11;;;;;;;6.20;2.60;;;;;;;25.49;56.98;98496.44;4979422;28;20041;-62
2022/08/04 02:01:36;;;;;;;4.40;2.17;;;;;;;25.22;57.83;98456.38;4984534;28;20623;-60
2022/08/04 02:04:01;;;;;;;4.07;2.10;;;;;;;25.42;57.97;98498.47;4999951;28;20038;-58
2022/08/04 02:06:31;;;;;;;5.97;1.90;;;;;;;25.05;58.01;98427.94;5001664;28;20026;-61
2022/08/04 02:08:56;;;;;;;3.88;1.80;;;;;;;25.31;58.44;98487.66;4986408;28;20683;-59
2022/08/04 02:11:22;;;;;;;4.47;2.08;;;;;;;25.44;59.32;98496.38;5005835;28;20225;-62
2022/08/04 02:13:50;;;;;;;5.05;2.00;;;;;;;25.28;59.75;98504.13;5002086;28;20365;-60
2022/08/04 02:16:39;;;;;;;4.93;2.08;;;;;;;25.21;59.71;98492.00;5001701;28;20106;-60
2022/08/04 02:19:31;;;;;;;3.77;1.90;;;;;;;25.17;59.48;98493.53;4999537;28;20401;-60
2022/08/04 02:22:18;;;;;;;5.15;2.20;;;;;;;25.22;59.50;98489.09;4996091;28;20034;-59
2022/08/04 02:25:06;;;;;;;4.65;2.35;;;;;;;25.03;59.51;98458.50;4982193;28;20441;-59
2022/08/04 02:27:59;;;;;;;5.32;2.00;;;;;;;25.29;59.31;98495.09;4993499;28;20079;-59
2022/08/04 02:30:30;;;;;;;4.32;2.10;;;;;;;25.11;59.63;98484.69;5001495;28;20042;-61
2022/08/04 02:32:59;;;;;;;4.93;2.30;;;;;;;25.19;58.76;98494.91;4983885;28;20055;-62
2022/08/04 02:35:26;;;;;;;;;;;;;;;25.24;58.48;98491.53;4982124;28;20026;-60
2022/08/04 02:38:31;;;;;;;4.53;2.00;;;;;;;25.25;58.17;98491.31;4985365;28;19921;-59
2022/08/04 02:40:59;;;;;;;3.60;1.60;;;;;;;25.15;58.22;98483.13;4991404;28;20038;-60
2022/08/04 02:43:24;;;;;;;3.83;1.80;;;;;;;25.19;58.21;98494.91;4994229;28;20026;-60
2022/08/04 02:45:55;;;;;;;4.20;2.00;;;;;;;25.25;57.31;98486.00;5002445;28;20029;-59
2022/08/04 02:48:23;;;;;;;4.38;2.00;;;;;;;24.97;57.93;98449.63;4984062;28;20042;-60
2022/08/04 02:50:49;;;;;;;4.00;1.83;;;;;;;25.19;57.19;98467.50;4985111;28;20030;-60
2022/08/04 02:53:17;;;;;;;5.13;1.73;;;;;;;25.27;57.10;98488.41;4998772;28;20041;-60
2022/08/04 02:55:43;;;;;;;4.53;1.98;;;;;;;25.24;57.11;98488.88;4994563;28;20100;-62
2022/08/04 02:58:09;;;;;;;4.72;1.80;;;;;;;25.21;57.67;98489.34;4983630;28;20128;-60
2022/08/04 03:00:36;;;;;;;4.97;2.13;;;;;;;25.11;57.95;98490.00;4982373;28;20173;-60
2022/08/04 03:03:01;;;;;;;4.10;1.90;;;;;;;25.08;58.08;98498.44;5000844;28;20739;-59
2022/08/04 03:05:36;;;;;;;3.33;1.60;;;;;;;24.98;58.23;98487.66;5000389;28;20038;-59
2022/08/04 03:08:39;;;;;;;5.53;1.92;;;;;;;24.87;58.36;98499.97;4980110;28;20040;-61
2022/08/04 03:11:41;;;;;;;5.13;2.00;;;;;;;24.93;58.37;98496.34;5001901;28;20109;-62
2022/08/04 03:14:27;;;;;;;3.58;1.75;;;;;;;24.90;59.17;98491.53;5000256;28;20030;-60
2022/08/04 03:17:16;;;;;;;4.47;2.13;;;;;;;24.87;59.00;98499.97;4983334;28;20034;-61
2022/08/04 03:20:04;;;;;;;3.93;1.90;;;;;;;24.88;59.89;98493.59;4976519;28;20027;-59
2022/08/04 03:23:08;;;;;;;4.35;1.98;;;;;;;24.89;59.97;98497.88;4981039;28;20124;-59
2022/08/04 03:25:52;;;;;;;3.92;2.10;;;;;;;24.73;61.46;98494.97;4993245;28;20026;-61
2022/08/04 03:28:41;;;;;;;4.10;2.10;;;;;;;24.60;61.75;98463.38;4981201;28;20026;-60
2022/08/04 03:31:32;;;;;;;4.07;2.13;;;;;;;24.79;62.18;98490.56;4986158;28;20029;-61
2022/08/04 03:34:25;;;;;;;5.38;2.30;;;;;;;24.73;62.56;98487.00;4995684;28;20045;-62
2022/08/04 03:37:03;;;;;;;4.35;2.13;;;;;;;24.68;62.97;98486.91;4975133;28;20022;-63
2022/08/04 03:40:06;;;;;;;5.60;2.20;;;;;;;24.72;63.14;98482.72;4995377;28;20034;-60
2022/08/04 03:42:40;;;;;;;5.30;2.08;;;;;;;24.42;63.13;98450.25;5000452;28;20022;-63
2022/08/04 03:45:20;;;;;;;4.70;2.10;;;;;;;24.65;62.79;98487.38;5000457;28;20075;-61
2022/08/04 03:48:28;;;;;;;4.20;2.20;;;;;;;24.72;62.63;98488.03;4998600;28;20626;-60
2022/08/04 03:54:37;;;;;;;7.13;2.10;;;;;;;24.66;63.35;98485.53;4994875;28;20759;-61
2022/08/04 03:57:20;;;;;;;4.55;2.25;;;;;;;24.65;63.16;98490.03;4998782;28;20034;-61
2022/08/04 04:00:09;;;;;;;5.30;2.40;;;;;;;24.33;63.87;98492.34;4992978;28;20113;-60
2022/08/04 04:02:50;;;;;;;4.20;2.10;;;;;;;24.46;63.79;98485.94;4990322;28;20712;-59
2022/08/04 04:05:53;;;;;;;5.70;2.30;;;;;;;24.45;63.61;98481.69;4999601;28;20310;-60
2022/08/04 04:08:21;;;;;;;5.35;2.30;;;;;;;24.48;64.14;98478.56;4999431;28;20731;-61
2022/08/04 04:11:04;;;;;;;4.63;2.47;;;;;;;24.52;63.76;98485.00;5000473;28;20022;-60
2022/08/04 04:13:53;;;;;;;4.45;2.25;;;;;;;24.51;63.87;98484.16;4990689;28;20386;-60
2022/08/04 04:16:36;;;;;;;5.35;2.47;;;;;;;24.53;63.81;98484.78;4977372;28;20579;-60
2022/08/04 04:19:33;;;;;;;5.05;2.35;;;;;;;24.36;64.37;98479.38;4976122;28;20022;-59
2022/08/04 04:22:17;;;;;;;4.65;2.30;;;;;;;24.43;63.84;98483.78;4998279;28;20026;-60
2022/08/04 04:24:51;;;;;;;4.75;2.20;;;;;;;24.24;64.83;98481.31;5000772;28;20060;-61
2022/08/04 04:27:26;;;;;;;4.28;2.33;;;;;;;24.36;64.66;98500.66;4997937;28;20140;-61
2022/08/04 04:30:05;;;;;;;3.95;2.15;;;;;;;24.24;64.74;98501.72;4993769;28;20030;-61
2022/08/04 04:32:49;;;;;;;4.70;2.20;;;;;;;24.20;65.00;98503.25;4998359;28;20112;-62
2022/08/04 04:35:18;;;;;;;4.82;2.53;;;;;;;24.13;65.49;98511.34;4993773;28;20509;-60
2022/08/04 04:37:47;;;;;;;4.68;2.40;;;;;;;24.04;66.14;98512.75;4981233;28;20030;-59
2022/08/04 04:40:31;;;;;;;4.63;2.17;;;;;;;24.09;65.75;98515.53;4999845;28;20049;-59
2022/08/04 04:42:58;;;;;;;5.75;2.40;;;;;;;24.01;65.90;98515.91;4977902;28;20039;-59
2022/08/04 04:45:54;;;;;;;4.32;2.25;;;;;;;23.95;65.84;98513.13;5001391;28;20080;-60
2022/08/04 04:48:40;;;;;;;4.47;2.40;;;;;;;23.97;65.82;98512.91;4999985;28;20030;-60
2022/08/04 04:51:28;;;;;;;4.95;2.60;;;;;;;24.02;66.45;98507.69;4998552;28;20025;-59
2022/08/04 04:54:13;;;;;;;6.88;2.50;;;;;;;23.99;66.31;98514.28;4982335;28;20030;-59
2022/08/04 04:56:50;;;;;;;4.75;2.35;;;;;;;23.98;66.14;98511.84;4977826;28;20038;-58
2022/08/04 04:59:20;;;;;;;6.57;2.70;;;;;;;23.93;65.73;98503.78;4995837;28;20145;-59
2022/08/04 05:02:17;;;;;;;4.90;2.55;;;;;;;23.96;65.37;98522.69;4993905;28;20034;-59
2022/08/04 05:05:01;;;;;;;4.28;2.30;;;;;;;23.96;65.88;98529.88;4998931;28;20029;-59
2022/08/04 05:07:56;;;;;;;4.70;2.38;;;;;;;23.92;66.04;98524.22;4993020;28;20033;-60
2022/08/04 05:10:21;;;;;;;6.00;2.58;;;;;;;23.78;65.36;98488.31;4999665;28;20072;-59
2022/08/04 05:12:55;;;;;;;5.55;2.70;;;;;;;23.99;66.42;98521.44;4998790;28;20665;-58
2022/08/04 05:15:24;;;;;;;4.55;2.35;;;;;;;24.03;66.51;98519.13;5000430;28;20033;-57
2022/08/04 05:17:51;;;;;;;6.50;2.55;;;;;;;24.02;66.42;98539.53;4999771;28;20057;-59
2022/08/04 05:20:27;;;;;;;5.90;2.55;;;;;;;24.10;65.78;98533.88;4999483;28;20476;-60
2022/08/04 05:23:20;;;;;;;4.75;2.38;;;;;;;24.06;65.90;98524.78;4982813;28;20493;-60
2022/08/04 05:25:52;;;;;;;5.63;2.30;;;;;;;24.16;65.98;98529.47;4998718;28;20179;-59
2022/08/04 05:28:33;;;;;;;5.43;2.55;;;;;;;24.26;65.74;98534.19;4991916;28;20386;-60
2022/08/04 05:31:02;;;;;;;4.72;2.72;;;;;;;24.23;65.82;98537.31;4996452;28;20029;-58
2022/08/04 05:33:39;;;;;;;5.88;2.20;;;;;;;24.21;65.94;98536.75;4990005;28;20057;-61
2022/08/04 05:36:11;;;;;;;6.15;2.20;;;;;;;24.29;64.68;98533.72;4998803;28;20054;-60
2022/08/04 05:38:38;;;;;;;5.10;2.25;;;;;;;24.24;64.45;98528.28;4979406;28;20096;-58
2022/08/04 05:41:05;;;;;;;4.47;2.40;;;;;;;24.25;64.79;98528.06;4982759;28;20034;-58
2022/08/04 05:43:31;;;;;;;4.88;2.38;;;;;;;24.31;64.22;98535.09;4993916;28;20026;-60
2022/08/04 05:45:57;;;;;;;5.03;2.25;;;;;;;23.97;64.97;98495.13;4974537;28;20069;-62
2022/08/04 05:48:23;;;;;;;5.07;2.35;;;;;;;24.16;65.75;98537.44;4981354;28;20069;-60
2022/08/04 05:50:49;;;;;;;5.13;2.40;;;;;;;24.20;64.82;98529.81;4982302;28;20697;-60
2022/08/04 05:53:15;;;;;;;4.93;2.30;;;;;;;24.15;65.30;98528.69;4980914;28;20117;-60
2022/08/04 05:55:41;;;;;;;6.90;2.50;;;;;;;24.21;64.96;98529.59;4982869;28;20030;-59
2022/08/04 05:58:06;;;;;;;5.55;2.38;;;;;;;24.22;65.40;98533.03;4997377;28;20030;-60
2022/08/04 06:00:32;;;;;;;4.93;2.47;;;;;;;24.20;64.63;98535.94;5002058;28;20032;-58
2022/08/04 06:02:59;;;;;;;6.10;2.50;;;;;;;24.27;63.66;98533.94;4981685;28;20038;-60
2022/08/04 06:05:26;;;;;;;4.43;2.30;;;;;;;24.17;63.84;98536.41;4999399;28;20022;-60
2022/08/04 06:07:51;;;;;;;5.53;2.22;;;;;;;24.15;64.01;98527.88;5001040;28;20040;-60
2022/08/04 06:10:17;;;;;;;4.65;2.38;;;;;;;24.17;64.14;98533.75;4997777;28;20026;-60
2022/08/04 06:12:51;;;;;;;4.32;2.25;;;;;;;24.13;64.80;98519.31;4999094;28;20121;-62
2022/08/04 06:15:18;;;;;;;4.30;2.40;;;;;;;24.18;64.68;98524.72;5000311;28;20109;-61
2022/08/04 06:17:56;;;;;;;4.90;2.40;;;;;;;24.27;64.44;98531.28;4985625;28;20068;-61
2022/08/04 06:20:26;;;;;;;4.47;2.47;;;;;;;24.14;64.01;98526.25;4985446;28;20040;-59
2022/08/04 06:22:53;;;;;;;4.25;2.17;;;;;;;24.13;63.63;98525.44;4981915;28;20042;-62
2022/08/04 06:25:22;;;;;;;4.90;2.30;;;;;;;24.01;63.69;98505.28;4983215;28;20033;-60
2022/08/04 06:27:48;;;;;;;4.80;2.33;;;;;;;23.98;63.47;98493.25;4990953;28;20333;-61
2022/08/04 06:30:15;;;;;;;4.75;2.20;;;;;;;24.30;63.23;98538.78;4979918;28;20044;-60
2022/08/04 06:32:54;;;;;;;4.53;2.30;;;;;;;24.22;62.92;98528.53;4995657;28;20093;-60
2022/08/04 06:35:20;;;;;;;4.75;2.40;;;;;;;24.35;62.90;98535.41;5001435;28;20160;-59
2022/08/04 06:37:46;;;;;;;5.07;2.05;;;;;;;24.31;62.17;98537.75;5000780;28;20068;-60
2022/08/04 06:40:14;;;;;;;3.97;2.20;;;;;;;24.25;62.84;98530.72;4977995;28;20051;-65
2022/08/04 06:42:40;;;;;;;4.60;2.30;;;;;;;24.11;61.57;98505.47;5041057;28;20016;-60
2022/08/04 06:45:06;;;;;;;4.28;2.10;;;;;;;24.34;61.52;98537.28;5016512;28;20064;-60
2022/08/04 06:47:32;;;;;;;5.15;2.20;;;;;;;24.42;61.15;98543.25;4999674;28;20083;-63
2022/08/04 06:49:58;;;;;;;5.55;2.50;;;;;;;24.37;60.51;98542.13;5016747;28;20817;-62
2022/08/04 06:52:24;;;;;;;5.68;2.42;;;;;;;24.40;60.33;98530.22;4998562;28;20030;-59
2022/08/04 06:54:51;;;;;;;4.45;2.22;;;;;;;24.24;59.82;98505.22;5019680;28;20122;-60
2022/08/04 06:57:19;;;;;;;5.28;2.40;;;;;;;24.44;60.31;98534.03;5018554;28;20686;-59
2022/08/04 06:59:50;;;;;;;4.32;2.38;;;;;;;24.59;59.89;98540.69;5001770;28;20403;-59
2022/08/04 07:02:21;;;;;;;6.82;2.00;;;;;;;24.45;60.03;98532.16;5002433;28;20071;-60
2022/08/04 07:04:48;;;;;;;6.13;2.10;;;;;;;24.56;59.80;98534.78;5016168;28;20555;-62
2022/08/04 07:07:14;;;;;;;5.43;2.50;;;;;;;24.66;59.06;98533.38;5017982;28;20030;-59
2022/08/04 07:09:39;;;;;;;4.32;2.22;;;;;;;24.74;57.57;98528.47;5013029;28;20040;-59
2022/08/04 07:12:06;;;;;;;5.05;2.20;;;;;;;24.75;57.74;98531.94;5018961;28;20044;-60
2022/08/04 07:14:35;;;;;;;6.40;2.55;;;;;;;24.73;58.17;98531.38;5017185;28;20029;-59
2022/08/04 07:17:03;;;;;;;4.50;2.47;;;;;;;24.71;58.50;98525.50;5001340;28;20037;-61
2022/08/04 07:19:31;;;;;;;5.95;2.38;;;;;;;24.67;58.64;98516.38;5032112;28;20033;-63
2022/08/04 07:21:59;;;;;;;4.88;2.50;;;;;;;24.79;58.20;98525.13;4997648;28;20029;-60
2022/08/04 07:24:35;;;;;;;5.68;2.92;;;;;;;24.82;58.40;98527.28;5019872;28;20368;-60
2022/08/04 07:27:01;;;;;;;4.38;2.60;;;;;;;24.91;58.39;98523.19;5020023;28;20061;-59
2022/08/04 07:29:27;;;;;;;4.03;2.00;;;;;;;24.80;58.85;98528.56;5012647;28;20029;-60
2022/08/04 07:31:54;;;;;;;4.43;2.30;;;;;;;24.93;57.99;98528.25;4995830;28;20033;-61
2022/08/04 07:34:20;;;;;;;5.45;2.58;;;;;;;24.90;58.97;98520.78;5010910;28;20029;-59
2022/08/04 07:36:47;;;;;;;4.72;2.38;;;;;;;24.94;58.92;98516.59;5019189;28;20132;-59
2022/08/04 07:39:13;;;;;;;4.03;2.05;;;;;;;25.05;59.33;98521.03;5018960;28;20158;-60
2022/08/04 07:41:40;;;;;;;4.90;2.55;;;;;;;25.04;59.28;98527.38;5002562;28;20520;-62
2022/08/04 07:44:06;;;;;;;4.18;2.22;;;;;;;25.14;59.49;98524.09;5017166;28;20053;-59
2022/08/04 07:46:32;;;;;;;5.82;2.50;;;;;;;25.18;58.52;98513.78;5015891;28;20037;-64
2022/08/04 07:48:59;;;;;;;4.35;2.00;;;;;;;25.01;59.25;98489.81;5015820;28;20040;-59
2022/08/04 07:51:25;;;;;;;6.22;2.20;;;;;;;25.28;59.70;98519.28;5018908;28;20052;-59
2022/08/04 07:53:51;;;;;;;6.18;2.40;;;;;;;25.41;59.10;98518.97;5002457;28;20108;-60
2022/08/04 07:56:16;;;;;;;5.00;2.28;;;;;;;25.52;57.62;98525.25;5000154;28;20508;-59
2022/08/04 07:58:41;;;;;;;6.90;2.58;;;;;;;25.59;56.19;98514.41;5019894;28;20110;-60
2022/08/04 08:01:08;;;;;;;5.28;2.40;;;;;;;25.54;56.01;98493.88;5016588;28;20933;-59
2022/08/04 08:03:34;;;;;;;4.38;2.30;;;;;;;25.84;57.29;98525.41;5000331;28;20048;-61
2022/08/04 08:05:59;;;;;;;6.10;2.30;;;;;;;25.85;56.58;98526.22;4998225;28;20072;-59
2022/08/04 08:08:26;;;;;;;4.50;2.20;;;;;;;25.92;57.71;98523.38;4992618;28;20313;-60
2022/08/04 08:10:52;;;;;;;4.30;2.10;;;;;;;26.05;57.50;98515.06;5020359;28;20033;-60
2022/08/04 08:13:18;;;;;;;6.60;2.33;;;;;;;25.91;58.08;98482.63;5018830;28;20561;-60
2022/08/04 08:15:45;;;;;;;4.40;2.30;;;;;;;26.29;56.30;98518.25;5000501;28;20022;-61
2022/08/04 08:18:11;;;;;;;4.38;2.20;;;;;;;26.33;56.74;98515.91;5018082;28;20068;-61
2022/08/04 08:20:37;;;;;;;7.97;2.70;;;;;;;26.82;55.28;98507.91;5018998;28;20056;-62
2022/08/04 08:23:03;;;;;;;5.72;2.38;;;;;;;26.72;54.37;98510.47;5015068;28;20037;-60
2022/08/04 08:25:32;;;;;;;4.57;2.10;;;;;;;26.99;54.52;98513.09;5001850;28;20029;-59
2022/08/04 08:27:57;;;;;;;;;;;;;;;27.70;52.97;98512.00;5015616;28;20732;-59
2022/08/04 08:30:26;;;;;;;4.85;2.45;;;;;;;27.91;51.59;98504.91;5018008;28;19966;-62
2022/08/04 08:32:51;;;;;;;4.07;2.10;;;;;;;28.12;50.78;98508.50;5017157;28;20032;-60
2022/08/04 08:35:17;;;;;;;4.20;2.20;;;;;;;28.03;50.42;98478.00;5013345;28;20040;-59
2022/08/04 08:37:55;;;;;;;4.75;2.20;;;;;;;28.82;49.21;98508.13;5017398;28;20029;-61
2022/08/04 08:40:29;;;;;;;4.55;2.40;;;;;;;29.20;48.91;98506.81;5000049;28;20022;-60
2022/08/04 08:43:32;;;;;;;5.07;2.35;;;;;;;29.27;47.89;98510.03;5012483;28;20029;-59
2022/08/04 08:46:03;;;;;;;5.75;2.30;;;;;;;29.53;46.75;98501.94;5016234;28;20029;-59
2022/08/04 08:48:41;;;;;;;4.38;2.20;;;;;;;29.51;47.56;98483.47;5011645;28;20036;-59
2022/08/04 08:51:23;;;;;;;6.25;2.10;;;;;;;30.12;45.13;98500.44;5035077;28;20056;-59
2022/08/04 08:53:51;;;;;;;5.88;2.60;;;;;;;29.89;44.99;98499.19;5009993;28;20042;-58
2022/08/04 08:56:31;;;;;;;6.57;2.53;;;;;;;30.66;43.47;98470.06;5019346;28;20029;-58
2022/08/04 08:59:14;;;;;;;4.53;2.20;;;;;;;30.97;40.08;98488.66;5015509;28;20043;-59
2022/08/04 09:01:45;;;;;;;4.80;2.20;;;;;;;31.34;40.69;98487.25;5011061;28;20057;-59
2022/08/04 09:04:37;;;;;;;4.95;2.17;;;;;;;31.39;39.88;98478.34;5019667;28;20033;-63
2022/08/04 09:07:32;;;;;;;5.00;2.55;;;;;;;32.15;39.36;98481.25;5007602;28;20041;-60
2022/08/04 09:10:21;;;;;;;4.97;2.10;;;;;;;32.07;38.84;98487.28;5001621;28;20524;-61
2022/08/04 09:13:01;;;;;;;4.60;2.10;;;;;;;31.59;39.60;98478.13;5018054;28;20069;-61
2022/08/04 09:15:38;;;;;;;4.75;1.98;;;;;;;31.95;39.82;98469.66;5011273;28;20040;-58
2022/08/04 09:18:17;;;;;;;5.63;2.10;;;;;;;32.40;38.32;98473.91;4993592;28;20124;-62
2022/08/04 09:20:48;;;;;;;4.38;2.17;;;;;;;32.06;39.44;98438.09;5002217;28;20032;-61
2022/08/04 09:23:19;;;;;;;5.63;1.95;;;;;;;32.29;38.69;98476.75;5013598;28;20067;-61
2022/08/04 09:26:10;;;;;;;4.50;2.30;;;;;;;31.52;40.11;98463.44;5017952;28;20048;-60
2022/08/04 09:29:02;;;;;;;4.70;2.10;;;;;;;30.94;42.52;98466.94;4990697;28;20044;-58
2022/08/04 09:31:35;;;;;;;4.50;2.10;;;;;;;30.66;42.64;98469.28;5000858;28;20060;-58
2022/08/04 09:34:19;;;;;;;4.57;2.17;;;;;;;30.39;41.65;98469.75;5002486;28;20072;-57
2022/08/04 09:36:50;;;;;;;6.70;2.22;;;;;;;29.93;43.68;98468.09;5016425;28;20119;-60
2022/08/04 09:39:25;;;;;;;5.18;2.03;;;;;;;29.40;44.30;98465.81;5004166;28;20489;-59
2022/08/04 09:42:01;;;;;;;5.00;2.03;;;;;;;28.94;46.37;98452.47;5022277;28;20026;-58
2022/08/04 09:44:55;;;;;;;4.15;2.03;;;;;;;28.63;46.78;98431.09;5003666;28;20037;-60
2022/08/04 09:47:46;;;;;;;6.25;2.15;;;;;;;29.06;46.18;98455.69;5020936;28;20045;-59
2022/08/04 09:50:34;;;;;;;5.20;2.08;;;;;;;29.01;45.66;98458.38;5017573;28;20064;-60
2022/08/04 09:53:27;;;;;;;7.03;2.08;;;;;;;29.08;45.94;98450.06;5017533;28;20022;-58
2022/08/04 09:56:08;;;;;;;5.20;1.90;;;;;;;28.98;47.09;98450.06;5017361;28;20025;-59
2022/08/04 09:59:00;;;;;;;4.72;2.10;;;;;;;29.17;46.64;98442.31;5021360;28;20044;-58
2022/08/04 10:01:29;;;;;;;3.67;1.70;;;;;;;29.12;43.08;98437.75;5000012;28;20118;-61
2022/08/04 10:03:59;;;;;;;5.63;2.00;;;;;;;29.04;44.94;98440.97;5023025;28;20112;-61
2022/08/04 10:06:35;;;;;;;3.90;2.08;;;;;;;28.99;43.30;98439.09;5035607;28;20041;-64
2022/08/04 10:09:26;;;;;;;4.57;2.03;;;;;;;28.98;43.26;98431.34;5013040;28;20060;-59
2022/08/04 10:11:54;;;;;;;6.90;2.38;;;;;;;29.13;45.82;98426.78;5018225;28;20053;-60
2022/08/04 10:14:48;;;;;;;5.07;2.20;;;;;;;29.16;44.26;98430.00;5018138;28;20033;-58
2022/08/04 10:17:31;;;;;;;3.90;1.90;;;;;;;29.19;43.97;98422.25;5018087;28;20337;-60
2022/08/04 10:20:20;;;;;;;4.50;1.90;;;;;;;29.17;44.82;98419.03;5021502;28;20110;-61
2022/08/04 10:23:04;;;;;;;5.28;2.13;;;;;;;29.37;44.38;98418.19;5007472;28;20140;-58
2022/08/04 10:25:34;;;;;;;5.88;1.90;;;;;;;29.39;45.03;98410.69;5008006;28;20100;-59
2022/08/04 10:28:05;;;;;;;4.18;1.75;;;;;;;29.46;46.20;98407.69;5016627;28;20053;-58
2022/08/04 10:30:32;;;;;;;4.20;1.70;;;;;;;29.43;44.25;98406.38;5004351;28;20377;-59
2022/08/04 10:33:20;;;;;;;3.72;1.70;;;;;;;29.51;45.67;98403.13;5000242;28;20034;-61
2022/08/04 10:35:53;;;;;;;4.93;2.20;;;;;;;29.70;45.62;98399.84;5012399;28;20033;-60
2022/08/04 10:38:22;;;;;;;5.10;1.85;;;;;;;29.72;43.24;98365.53;5005240;28;20033;-60
2022/08/04 10:40:57;;;;;;;3.92;1.95;;;;;;;29.92;42.80;98390.63;5020978;28;20043;-58
2022/08/04 10:43:42;;;;;;;6.32;2.08;;;;;;;29.95;41.29;98390.09;5001603;28;20938;-59
2022/08/04 10:46:17;;;;;;;4.00;1.90;;;;;;;29.87;39.76;98357.44;5023120;28;20026;-58
2022/08/04 10:49:00;;;;;;;4.97;1.77;;;;;;;30.07;40.36;98382.53;4996114;28;20025;-58
2022/08/04 10:51:44;;;;;;;5.20;1.92;;;;;;;30.23;40.43;98375.97;5002470;28;20030;-59
2022/08/04 10:54:18;;;;;;;4.05;2.00;;;;;;;30.24;42.19;98377.56;5021753;28;20033;-61
2022/08/04 10:57:32;;;;;;;4.05;1.85;;;;;;;30.43;43.52;98377.72;5004060;28;20706;-59
2022/08/04 11:00:00;;;;;;;6.32;2.05;;;;;;;30.46;39.57;98374.47;4979281;28;20034;-59
2022/08/04 11:02:29;;;;;;;5.05;2.00;;;;;;;30.49;38.28;98377.69;4974714;28;20031;-59
2022/08/04 11:05:12;;;;;;;3.70;2.00;;;;;;;30.47;38.41;98365.34;5003738;28;20033;-61
2022/08/04 11:07:40;;;;;;;4.60;2.13;;;;;;;30.47;40.11;98362.66;4998037;28;20026;-59
2022/08/04 11:10:07;;;;;;;4.67;2.10;;;;;;;30.53;41.54;98363.41;5012624;28;20045;-62
2022/08/04 11:12:33;;;;;;;5.65;2.00;;;;;;;30.79;41.30;98363.19;5014390;28;20148;-62
2022/08/04 11:15:18;;;;;;;4.25;2.08;;;;;;;30.81;43.44;98359.16;5004468;28;20516;-59
2022/08/04 11:17:51;;;;;;;5.53;1.90;;;;;;;30.88;41.07;98347.28;5006610;28;20032;-59
2022/08/04 11:20:23;;;;;;;4.07;1.98;;;;;;;31.01;39.61;98355.50;5001585;28;20029;-59
2022/08/04 11:22:56;;;;;;;4.30;2.00;;;;;;;31.05;37.32;98344.97;5019655;28;20023;-60
2022/08/04 11:25:25;;;;;;;5.70;2.25;;;;;;;30.75;38.56;98344.16;5019746;28;20053;-59
2022/08/04 11:28:04;;;;;;;4.93;2.10;;;;;;;30.70;40.84;98346.09;5021874;28;20026;-59
2022/08/04 11:30:56;;;;;;;4.40;2.10;;;;;;;30.85;42.33;98336.03;4999854;28;20033;-61
2022/08/04 11:33:28;;;;;;;5.57;2.10;;;;;;;31.03;40.62;98328.34;5010670;28;20034;-58
2022/08/04 11:36:03;;;;;;;4.97;1.98;;;;;;;30.98;40.21;98307.72;5018056;28;20038;-63
2022/08/04 11:38:57;;;;;;;5.45;2.10;;;;;;;31.36;40.91;98331.16;5005796;28;20032;-60
2022/08/04 11:41:38;;;;;;;5.93;2.72;;;;;;;31.40;40.46;98324.16;5014355;28;20045;-63
2022/08/04 11:44:04;;;;;;;5.88;2.22;;;;;;;31.58;39.75;98320.72;5015997;28;20028;-59
2022/08/04 11:46:51;;;;;;;5.57;2.22;;;;;;;31.75;39.02;98327.47;5002472;28;20112;-61
2022/08/04 11:49:30;;;;;;;5.65;2.17;;;;;;;31.59;37.62;98330.34;5019876;28;20029;-60
2022/08/04 11:51:55;;;;;;;;;;;;;;;31.51;40.03;98317.59;5014575;28;20037;-60
2022/08/04 11:54:21;;;;;;;4.30;1.90;;;;;;;31.80;37.98;98304.00;5015106;28;19978;-59
2022/08/04 11:56:46;;;;;;;5.07;1.90;;;;;;;31.70;33.41;98316.78;5014687;28;20508;-60
2022/08/04 11:59:12;;;;;;;4.85;1.98;;;;;;;31.71;37.11;98308.44;5015195;28;20030;-59
2022/08/04 12:01:58;;;;;;;3.95;1.90;;;;;;;31.76;37.68;98310.25;5020528;28;20026;-60
2022/08/04 12:04:41;;;;;;;4.05;1.98;;;;;;;31.78;38.53;98306.19;5017935;28;20108;-59
2022/08/04 12:07:13;;;;;;;4.90;1.90;;;;;;;32.08;35.63;98311.41;5001257;28;20026;-61
2022/08/04 12:09:48;;;;;;;4.93;1.98;;;;;;;31.83;32.77;98283.00;5001434;28;20025;-59
2022/08/04 12:12:52;;;;;;;4.68;2.03;;;;;;;32.27;32.66;98301.41;5018433;28;20045;-59
2022/08/04 12:15:28;;;;;;;6.18;1.80;;;;;;;31.90;35.66;98297.66;4982477;28;20070;-60
2022/08/04 12:18:07;;;;;;;4.45;1.95;;;;;;;31.57;36.88;98270.75;5001952;28;20504;-58